Overview Statistics Trail Chart Weather Telemetry Raw packets
 

This is the latest recevied weather packets stored in our database for station/object HS5XHC-1. If no packets are shown the sender has not sent any weather packets the latest 10 day(s).

<< 30 31 32 33 34 35 36 >>
Time Temp. Humidity Pressure Rain* Wind** Luminosity Snow
1777429633 25.56° C 58% 969 hPa - - 0 W/m² -
1777429009 25.56° C 57% 969 hPa - - 0 W/m² -
1777428385 26.11° C 57% 969 hPa - - 0 W/m² -
1777427761 25.56° C 58% 969 hPa - - 0 W/m² -
1777427137 25° C 61% 969 hPa - - 0 W/m² -
1777426513 25.56° C 57% 969 hPa - - 0 W/m² -
1777425889 25° C 58% 969 hPa - - 0 W/m² -
1777425265 24.44° C 61% 969 hPa - - 0 W/m² -
1777424641 26.11° C 56% 969 hPa - - 0 W/m² -
1777424017 26.11° C 57% 968 hPa - - 0 W/m² -
1777423393 25.56° C 58% 968 hPa - - 0 W/m² -
1777422770 25.56° C 57% 968 hPa - - 0 W/m² -
1777422145 25.56° C 57% 968 hPa - - 0 W/m² -
1777421521 25.56° C 56% 968 hPa - - 0 W/m² -
1777420897 25.56° C 56% 968 hPa - - 0 W/m² -
1777420273 26.11° C 55% 968 hPa - - 0 W/m² -
1777419649 26.11° C 55% 968 hPa - - 0 W/m² -
1777419025 25.56° C 55% 968 hPa - - 0 W/m² -
1777418401 25° C 57% 968 hPa - - 0 W/m² -
1777417777 25.56° C 55% 968 hPa - - 0 W/m² -
1777417153 25.56° C 55% 968 hPa - - 0 W/m² -
1777416529 25.56° C 55% 967 hPa - - 0 W/m² -
1777415905 25.56° C 56% 967 hPa - - 0 W/m² -
1777415281 25.56° C 56% 967 hPa - - 0 W/m² -
1777414657 26.11° C 54% 967 hPa - - 0 W/m² -

* Rain since midnight (hover to see other rain measurements)
** Current wind speed in m/s (hover to see current wind gust speed)